Time;durP1;ratioP1;P1;durP2;ratioP2;P2;SDS_P1;SDS_P2;PMS_P1;PMS_P2;Temp;Humidity;BMP_temperature;BMP_pressure;BME280_temperature;BME280_humidity;BME280_pressure;Samples;Min_cycle;Max_cycle;Signal;HPM_P1;HPM_P2
2021/12/03 00:02:18;;;;;;;17.27;13.47;;;3.30;99.90;;;;;;4952514;29;20208;-85
2021/12/03 00:04:45;;;;;;;16.80;14.45;;;3.30;99.90;;;;;;4953813;29;20180;-85
2021/12/03 00:07:10;;;;;;;16.90;14.20;;;3.30;99.90;;;;;;4953202;28;20214;-85
2021/12/03 00:09:36;;;;;;;17.73;13.83;;;3.30;99.90;;;;;;4953261;28;20227;-86
2021/12/03 00:12:04;;;;;;;16.27;13.13;;;3.30;99.90;;;;;;4951906;29;20208;-85
2021/12/03 00:14:30;;;;;;;18.05;13.77;;;3.30;99.90;;;;;;4953466;28;20168;-85
2021/12/03 00:16:55;;;;;;;16.88;14.32;;;3.30;99.90;;;;;;4953741;28;20215;-85
2021/12/03 00:19:21;;;;;;;16.70;13.97;;;3.20;99.90;;;;;;4951721;29;20164;-86
2021/12/03 00:21:47;;;;;;;17.83;14.50;;;3.20;99.90;;;;;;4953714;28;20177;-85
2021/12/03 00:24:12;;;;;;;16.67;14.00;;;3.20;99.90;;;;;;4953063;29;20536;-85
2021/12/03 00:26:39;;;;;;;18.37;13.70;;;3.20;99.90;;;;;;4952114;28;20685;-85
2021/12/03 00:29:05;;;;;;;18.92;14.93;;;3.20;99.90;;;;;;4951860;29;20181;-85
2021/12/03 00:31:31;;;;;;;15.90;12.95;;;3.20;99.90;;;;;;4953778;28;20187;-85
2021/12/03 00:33:59;;;;;;;15.43;13.63;;;3.20;99.90;;;;;;4955502;28;20180;-85
2021/12/03 00:36:27;;;;;;;18.63;13.90;;;3.20;99.90;;;;;;4957305;29;21269;-85
2021/12/03 00:38:56;;;;;;;19.08;15.45;;;3.20;99.90;;;;;;4956290;28;20171;-86
2021/12/03 00:41:22;;;;;;;16.98;14.30;;;3.20;99.90;;;;;;4957242;28;20172;-87
2021/12/03 00:43:51;;;;;;;17.17;14.90;;;3.30;99.90;;;;;;4955347;29;20165;-87
2021/12/03 00:46:19;;;;;;;18.52;14.98;;;3.20;99.90;;;;;;4955966;29;20180;-87
2021/12/03 00:48:49;;;;;;;18.88;14.35;;;3.20;99.90;;;;;;4955515;28;20247;-86
2021/12/03 00:51:16;;;;;;;21.17;14.63;;;3.20;99.90;;;;;;4972290;28;20565;-86
2021/12/03 00:53:45;;;;;;;16.15;13.40;;;3.20;99.90;;;;;;4956719;28;20227;-85
2021/12/03 00:56:15;;;;;;;18.02;12.95;;;3.20;99.90;;;;;;4956617;28;20617;-87
2021/12/03 00:58:42;;;;;;;18.45;15.13;;;3.30;99.90;;;;;;4956536;28;20211;-88
2021/12/03 01:01:08;;;;;;;17.90;14.82;;;3.30;99.90;;;;;;4956715;29;20172;-86
2021/12/03 01:03:35;;;;;;;18.05;14.82;;;3.30;99.90;;;;;;4957576;28;20183;-85
2021/12/03 01:06:01;;;;;;;17.23;13.57;;;3.40;99.90;;;;;;4957208;28;20169;-87
2021/12/03 01:08:27;;;;;;;15.00;13.20;;;3.50;99.90;;;;;;4956240;28;20212;-87
2021/12/03 01:10:53;;;;;;;14.63;13.10;;;3.60;99.90;;;;;;4971872;28;20168;-86
2021/12/03 01:13:19;;;;;;;18.98;15.50;;;3.60;99.90;;;;;;4956484;29;20179;-85
2021/12/03 01:15:47;;;;;;;16.97;13.77;;;3.70;99.90;;;;;;4956385;29;20176;-86
2021/12/03 01:18:13;;;;;;;17.23;14.73;;;3.80;99.90;;;;;;4955767;28;20643;-86
2021/12/03 01:20:41;;;;;;;18.23;13.63;;;3.90;99.90;;;;;;4956344;28;20552;-85
2021/12/03 01:23:08;;;;;;;17.58;13.88;;;4.00;99.90;;;;;;4954822;29;20187;-85
2021/12/03 01:25:34;;;;;;;18.60;14.95;;;4.10;99.90;;;;;;4958150;28;20177;-85
2021/12/03 01:28:01;;;;;;;15.80;13.68;;;4.20;99.90;;;;;;4962229;28;20207;-84
2021/12/03 01:30:28;;;;;;;16.52;14.73;;;4.30;99.90;;;;;;4956188;28;20269;-85
2021/12/03 01:32:56;;;;;;;15.80;13.07;;;4.30;99.90;;;;;;4956058;28;20581;-85
2021/12/03 01:35:21;;;;;;;22.30;14.07;;;4.40;99.90;;;;;;4956807;28;20172;-86
2021/12/03 01:37:48;;;;;;;15.53;13.40;;;4.40;99.90;;;;;;4955399;28;20605;-85
2021/12/03 01:40:17;;;;;;;15.88;12.40;;;4.40;99.90;;;;;;4956472;28;20172;-85
2021/12/03 01:42:45;;;;;;;17.88;14.85;;;4.40;99.90;;;;;;4955207;29;20223;-85
2021/12/03 01:45:13;;;;;;;13.93;12.55;;;4.40;99.90;;;;;;4955865;28;20172;-86
2021/12/03 01:47:44;;;;;;;13.70;12.30;;;4.40;99.90;;;;;;4956062;28;20191;-85
2021/12/03 01:50:11;;;;;;;16.42;13.40;;;4.30;99.90;;;;;;4971583;28;20201;-86
2021/12/03 01:52:37;;;;;;;12.57;11.13;;;4.30;99.90;;;;;;4955826;29;20656;-87
2021/12/03 01:55:06;;;;;;;14.90;12.13;;;4.20;99.90;;;;;;4956168;28;20180;-86
2021/12/03 01:57:31;;;;;;;15.38;12.18;;;4.20;99.90;;;;;;4955398;28;20216;-86
2021/12/03 01:59:57;;;;;;;18.20;12.93;;;4.10;99.90;;;;;;4956300;29;20640;-86
2021/12/03 02:02:23;;;;;;;15.30;11.60;;;4.10;99.90;;;;;;4970862;28;20176;-86
2021/12/03 02:04:49;;;;;;;13.30;11.87;;;4.10;99.90;;;;;;4955459;29;20164;-86
2021/12/03 02:07:15;;;;;;;15.03;11.97;;;4.10;99.90;;;;;;4955405;28;21130;-85
2021/12/03 02:09:40;;;;;;;16.83;13.45;;;4.00;99.90;;;;;;4955042;29;20954;-85
2021/12/03 02:12:08;;;;;;;15.97;13.30;;;3.90;99.90;;;;;;4955829;29;20182;-85
2021/12/03 02:14:34;;;;;;;17.95;12.68;;;3.90;99.90;;;;;;4969836;28;20215;-85
2021/12/03 02:17:00;;;;;;;16.70;13.47;;;3.80;99.90;;;;;;4954048;28;20247;-85
2021/12/03 02:19:26;;;;;;;15.03;12.37;;;3.80;99.90;;;;;;4954903;29;20626;-85
2021/12/03 02:21:52;;;;;;;14.00;12.50;;;3.80;99.90;;;;;;4955181;29;20191;-84
2021/12/03 02:24:21;;;;;;;14.17;12.50;;;3.80;99.90;;;;;;4937454;29;20169;-84
2021/12/03 02:26:47;;;;;;;15.30;12.38;;;3.80;99.90;;;;;;4956245;28;20529;-86
2021/12/03 02:29:13;;;;;;;14.55;12.20;;;3.80;99.90;;;;;;4954675;28;20267;-86
2021/12/03 02:31:39;;;;;;;17.70;14.00;;;3.90;99.90;;;;;;4955453;28;20257;-86
2021/12/03 02:34:05;;;;;;;14.88;11.95;;;3.90;99.90;;;;;;4955186;29;20938;-86
2021/12/03 02:36:31;;;;;;;15.20;12.90;;;4.00;99.90;;;;;;4953474;28;20268;-86
2021/12/03 02:38:56;;;;;;;15.60;13.00;;;4.00;99.90;;;;;;4954881;29;20176;-86
2021/12/03 02:41:22;;;;;;;12.97;11.60;;;4.00;99.90;;;;;;4954896;29;20897;-86
2021/12/03 02:43:49;;;;;;;16.05;14.02;;;4.10;99.90;;;;;;4955120;28;20190;-86
2021/12/03 02:46:15;;;;;;;15.82;12.68;;;4.20;99.90;;;;;;4954890;28;20255;-86
2021/12/03 02:48:41;;;;;;;14.18;11.95;;;4.20;99.90;;;;;;4969163;28;20296;-87
2021/12/03 02:51:08;;;;;;;17.55;12.95;;;4.30;99.90;;;;;;4968757;28;20209;-86
2021/12/03 02:53:35;;;;;;;15.00;12.48;;;4.30;99.90;;;;;;4954587;28;20176;-85
2021/12/03 02:56:01;;;;;;;16.23;11.95;;;4.40;99.90;;;;;;4953875;28;20518;-86
2021/12/03 02:58:27;;;;;;;15.27;13.50;;;4.40;99.90;;;;;;4952933;28;20215;-86
2021/12/03 03:00:53;;;;;;;14.73;11.53;;;4.50;99.90;;;;;;4969487;28;20177;-86
2021/12/03 03:03:20;;;;;;;12.57;11.30;;;4.50;99.90;;;;;;4971184;28;21175;-87
2021/12/03 03:06:07;;;;;;;14.38;11.30;;;4.60;99.90;;;;;;4969146;28;20172;-86
2021/12/03 03:08:34;;;;;;;15.48;11.52;;;4.60;99.90;;;;;;4954380;28;20691;-86
2021/12/03 03:11:03;;;;;;;14.32;12.40;;;4.70;99.90;;;;;;4954499;28;20180;-86
2021/12/03 03:13:29;;;;;;;16.50;11.70;;;4.70;99.90;;;;;;4954300;28;20572;-85
2021/12/03 03:15:55;;;;;;;12.25;11.00;;;4.80;99.90;;;;;;4954539;29;20177;-85
2021/12/03 03:18:24;;;;;;;15.20;11.63;;;4.90;99.90;;;;;;4968558;28;20571;-88
2021/12/03 03:20:52;;;;;;;13.40;11.07;;;4.90;99.90;;;;;;4954778;29;20179;-87
2021/12/03 03:23:19;;;;;;;14.55;11.40;;;5.00;99.90;;;;;;4954814;28;20267;-84
2021/12/03 03:25:46;;;;;;;12.50;11.30;;;5.00;99.90;;;;;;4956450;28;20185;-85
2021/12/03 03:28:13;;;;;;;11.75;10.43;;;5.00;99.90;;;;;;4953797;28;20622;-86
2021/12/03 03:30:41;;;;;;;11.60;10.38;;;5.10;99.90;;;;;;4954462;28;20176;-86
2021/12/03 03:33:07;;;;;;;13.15;10.85;;;5.10;99.90;;;;;;4968794;28;20177;-86
2021/12/03 03:35:33;;;;;;;16.17;11.23;;;5.10;99.90;;;;;;4954091;29;20172;-86
2021/12/03 03:38:00;;;;;;;11.03;9.77;;;5.20;99.90;;;;;;4968004;28;20635;-85
2021/12/03 03:40:27;;;;;;;11.63;9.98;;;5.20;99.90;;;;;;4954615;28;20573;-86
2021/12/03 03:42:53;;;;;;;13.90;10.20;;;5.20;99.90;;;;;;4953869;28;20168;-86
2021/12/03 03:45:23;;;;;;;13.37;10.23;;;5.30;99.90;;;;;;4968788;28;20184;-86
2021/12/03 03:47:50;;;;;;;13.05;9.93;;;5.30;99.90;;;;;;4952536;28;20690;-87
2021/12/03 03:50:17;;;;;;;14.18;9.75;;;5.30;99.90;;;;;;4952336;29;20280;-85
2021/12/03 03:52:44;;;;;;;10.60;8.90;;;5.40;99.90;;;;;;4952537;29;20179;-86
2021/12/03 03:55:12;;;;;;;12.30;8.88;;;5.40;99.90;;;;;;4968615;28;20210;-86
2021/12/03 03:57:39;;;;;;;8.98;7.55;;;5.50;99.90;;;;;;4952372;28;20208;-86
2021/12/03 04:00:08;;;;;;;9.48;7.40;;;5.50;99.90;;;;;;4954020;28;20168;-86
2021/12/03 04:02:37;;;;;;;11.05;8.77;;;5.50;99.90;;;;;;4954866;28;20176;-86
2021/12/03 04:05:03;;;;;;;11.27;8.23;;;5.50;99.90;;;;;;4964778;28;20168;-86
2021/12/03 04:07:29;;;;;;;10.75;7.63;;;5.60;99.90;;;;;;4972880;28;20299;-86
2021/12/03 04:09:55;;;;;;;10.00;7.87;;;5.60;99.90;;;;;;4975813;28;20628;-86
2021/12/03 04:12:20;;;;;;;10.67;7.30;;;5.50;99.90;;;;;;4977313;28;20195;-86
2021/12/03 04:14:46;;;;;;;10.30;7.17;;;5.50;99.90;;;;;;4991750;28;20250;-86
2021/12/03 04:17:12;;;;;;;11.17;7.10;;;5.50;99.90;;;;;;4977366;28;20207;-86
2021/12/03 04:19:38;;;;;;;9.87;7.30;;;5.50;99.90;;;;;;4976716;28;20786;-86
2021/12/03 04:22:05;;;;;;;8.93;6.93;;;5.50;99.90;;;;;;4977184;28;21119;-85
2021/12/03 04:24:30;;;;;;;9.88;6.15;;;5.60;99.90;;;;;;4976549;28;20178;-85
2021/12/03 04:26:56;;;;;;;9.43;7.57;;;5.60;99.90;;;;;;4991621;28;20199;-85
2021/12/03 04:29:22;;;;;;;8.03;7.00;;;5.60;99.90;;;;;;4976236;28;20265;-85
2021/12/03 04:31:47;;;;;;;7.20;6.40;;;5.70;99.90;;;;;;4992025;28;20238;-85
2021/12/03 04:34:13;;;;;;;11.73;7.33;;;5.70;99.90;;;;;;4978978;28;20179;-85
2021/12/03 04:36:39;;;;;;;10.27;7.07;;;5.70;99.90;;;;;;4978221;28;20571;-85
2021/12/03 04:39:05;;;;;;;9.65;6.93;;;5.70;99.90;;;;;;4975933;28;20180;-85
2021/12/03 04:41:31;;;;;;;7.90;6.20;;;5.70;99.90;;;;;;4976660;28;20597;-86
2021/12/03 04:43:56;;;;;;;10.70;7.10;;;5.70;99.90;;;;;;4976772;28;20262;-85
2021/12/03 04:46:22;;;;;;;11.63;8.47;;;5.70;99.90;;;;;;4976475;28;20538;-85
2021/12/03 04:48:49;;;;;;;8.80;6.07;;;5.80;99.90;;;;;;4976649;28;20196;-85
2021/12/03 04:51:15;;;;;;;7.55;6.35;;;5.80;99.90;;;;;;4976278;28;20186;-85
2021/12/03 04:53:41;;;;;;;8.70;6.72;;;5.90;99.90;;;;;;4982075;28;20167;-85
2021/12/03 04:56:07;;;;;;;8.37;5.90;;;5.90;99.90;;;;;;4978825;28;20178;-86
2021/12/03 04:58:33;;;;;;;10.23;6.18;;;5.90;99.90;;;;;;4977239;28;20243;-85
2021/12/03 05:00:59;;;;;;;9.67;5.50;;;6.00;99.90;;;;;;4983392;28;20179;-87
2021/12/03 05:03:28;;;;;;;7.15;6.45;;;6.00;99.90;;;;;;4982310;28;20657;-86
2021/12/03 05:05:56;;;;;;;7.30;5.35;;;6.00;99.90;;;;;;4987687;28;20175;-86
2021/12/03 05:08:27;;;;;;;7.65;6.05;;;6.00;99.90;;;;;;4983199;28;20285;-86
2021/12/03 05:10:54;;;;;;;6.93;5.93;;;6.00;99.90;;;;;;4987657;28;20176;-86
2021/12/03 05:13:25;;;;;;;7.10;6.40;;;6.00;99.90;;;;;;4987111;28;20259;-85
2021/12/03 05:15:51;;;;;;;6.95;5.82;;;6.10;99.90;;;;;;4980435;28;20178;-84
2021/12/03 05:18:20;;;;;;;6.75;5.30;;;6.10;99.90;;;;;;4981779;28;20199;-85
2021/12/03 05:20:48;;;;;;;7.55;5.55;;;6.10;99.90;;;;;;4975215;28;20555;-85
2021/12/03 05:23:14;;;;;;;8.13;5.22;;;6.10;99.90;;;;;;4976056;28;20164;-85
2021/12/03 05:25:41;;;;;;;8.13;5.63;;;6.10;99.90;;;;;;4975908;28;20164;-85
2021/12/03 05:28:07;;;;;;;7.30;5.20;;;6.10;99.90;;;;;;4990846;28;20346;-87
2021/12/03 05:30:34;;;;;;;6.65;5.47;;;6.10;99.90;;;;;;4976734;28;20341;-86
2021/12/03 05:33:00;;;;;;;6.22;5.38;;;6.10;99.90;;;;;;4976678;28;20168;-87
2021/12/03 05:35:26;;;;;;;9.18;6.40;;;6.10;99.90;;;;;;4976075;28;21002;-86
2021/12/03 05:37:53;;;;;;;6.72;5.15;;;6.10;99.90;;;;;;4975568;28;20755;-86
2021/12/03 05:40:19;;;;;;;7.72;5.10;;;6.10;99.90;;;;;;4976143;28;20694;-87
2021/12/03 05:42:46;;;;;;;5.70;5.00;;;6.10;99.90;;;;;;4975713;28;20164;-86
2021/12/03 05:45:15;;;;;;;7.25;5.38;;;6.10;99.90;;;;;;4975269;28;20264;-86
2021/12/03 05:47:40;;;;;;;6.72;4.70;;;6.10;99.90;;;;;;4975586;28;20219;-86
2021/12/03 05:50:09;;;;;;;9.43;5.30;;;6.10;99.90;;;;;;4974911;28;20176;-86
2021/12/03 05:52:35;;;;;;;5.18;4.03;;;6.10;99.90;;;;;;4966393;28;21365;-87
2021/12/03 05:55:00;;;;;;;6.47;3.90;;;6.10;99.90;;;;;;4967674;28;20178;-88
2021/12/03 05:57:26;;;;;;;6.23;4.20;;;6.20;99.90;;;;;;4974312;28;20634;-87
2021/12/03 05:59:52;;;;;;;10.40;4.60;;;6.20;99.90;;;;;;4966116;28;20179;-87
2021/12/03 06:02:18;;;;;;;8.13;4.20;;;6.20;99.90;;;;;;4964686;28;20256;-87
2021/12/03 06:04:43;;;;;;;6.70;4.10;;;6.30;99.90;;;;;;4971089;28;20208;-87
2021/12/03 06:07:09;;;;;;;5.90;4.17;;;6.30;99.90;;;;;;4961958;28;20208;-86
2021/12/03 06:09:35;;;;;;;4.03;3.60;;;6.30;99.90;;;;;;4961798;28;20183;-89
2021/12/03 06:12:02;;;;;;;5.40;4.10;;;6.40;99.90;;;;;;4956879;28;20511;-88
2021/12/03 06:14:29;;;;;;;4.30;3.90;;;6.40;99.90;;;;;;4955420;29;20576;-88
2021/12/03 06:16:55;;;;;;;4.72;3.40;;;6.40;99.90;;;;;;4957310;28;20604;-89
2021/12/03 06:19:21;;;;;;;7.28;3.42;;;6.40;99.90;;;;;;4954786;29;20566;-87
2021/12/03 06:21:47;;;;;;;4.72;4.13;;;6.40;99.90;;;;;;4955821;28;20177;-90
2021/12/03 06:24:13;;;;;;;4.40;3.60;;;6.40;99.90;;;;;;4956220;28;20624;-88
2021/12/03 06:26:39;;;;;;;5.90;3.60;;;6.40;99.90;;;;;;4956770;28;21128;-90
2021/12/03 06:29:04;;;;;;;5.70;3.07;;;6.40;99.90;;;;;;4964271;28;20196;-90
2021/12/03 06:31:30;;;;;;;5.10;3.27;;;6.40;99.90;;;;;;4970499;28;20191;-89
2021/12/03 06:33:56;;;;;;;6.60;4.27;;;6.40;99.90;;;;;;4956531;28;20171;-90
2021/12/03 06:36:22;;;;;;;6.40;3.93;;;6.40;99.90;;;;;;4957048;28;20168;-89
2021/12/03 06:38:48;;;;;;;5.35;3.42;;;6.40;99.90;;;;;;4955852;28;20631;-89
2021/12/03 06:41:14;;;;;;;5.13;3.70;;;6.40;99.90;;;;;;4955702;29;20533;-90
2021/12/03 06:43:40;;;;;;;8.00;3.80;;;6.40;99.90;;;;;;4954810;29;20184;-89
2021/12/03 06:46:05;;;;;;;7.50;3.30;;;6.40;99.90;;;;;;4959755;29;20176;-90
2021/12/03 06:48:31;;;;;;;6.70;3.60;;;6.40;99.90;;;;;;4970309;28;20192;-88
2021/12/03 06:50:57;;;;;;;7.87;3.30;;;6.40;99.90;;;;;;4958541;28;20172;-88
2021/12/03 06:53:32;;;;;;;5.03;3.87;;;6.40;99.90;;;;;;4958540;28;20164;-88
2021/12/03 06:56:03;;;;;;;5.18;3.20;;;6.40;99.90;;;;;;4941365;29;20602;-86
2021/12/03 06:58:29;;;;;;;6.53;3.55;;;6.40;99.90;;;;;;4954960;28;20231;-85
2021/12/03 07:00:56;;;;;;;4.63;2.80;;;6.50;99.90;;;;;;4955579;28;20196;-85
2021/12/03 07:03:22;;;;;;;5.95;3.00;;;6.50;99.90;;;;;;4954784;28;20199;-85
2021/12/03 07:05:48;;;;;;;4.15;3.03;;;6.50;99.90;;;;;;4953658;29;20191;-86
2021/12/03 07:08:14;;;;;;;5.80;3.30;;;6.50;99.90;;;;;;4953917;28;20204;-86
2021/12/03 07:10:41;;;;;;;7.10;3.20;;;6.50;99.90;;;;;;4969284;28;20184;-86
2021/12/03 07:13:07;;;;;;;7.75;3.63;;;6.50;99.90;;;;;;4962576;29;20545;-85
2021/12/03 07:15:34;;;;;;;5.30;3.40;;;6.50;99.90;;;;;;4953409;29;20172;-87
2021/12/03 07:17:59;;;;;;;9.05;4.90;;;6.50;99.90;;;;;;4955022;28;20207;-86
2021/12/03 07:20:27;;;;;;;4.60;3.63;;;6.50;99.90;;;;;;4955598;28;20564;-87
2021/12/03 07:22:53;;;;;;;6.30;4.20;;;6.40;99.90;;;;;;4966462;28;21133;-86
2021/12/03 07:25:20;;;;;;;5.22;3.97;;;6.40;99.90;;;;;;4954283;28;20183;-88
2021/12/03 07:27:46;;;;;;;3.88;3.40;;;6.40;99.90;;;;;;4952862;28;20251;-86
2021/12/03 07:30:15;;;;;;;7.13;3.97;;;6.40;99.90;;;;;;4953101;29;20176;-87
2021/12/03 07:32:42;;;;;;;5.00;3.70;;;6.40;99.90;;;;;;4953164;29;20654;-87
2021/12/03 07:35:12;;;;;;;6.93;4.38;;;6.40;99.90;;;;;;4954302;29;20290;-87
2021/12/03 07:37:38;;;;;;;7.35;3.83;;;6.40;99.90;;;;;;4954147;28;20228;-87
2021/12/03 07:40:06;;;;;;;4.75;3.85;;;6.40;99.90;;;;;;4954092;28;20253;-87
2021/12/03 07:42:34;;;;;;;5.55;4.63;;;6.40;99.90;;;;;;4969665;28;20195;-86
2021/12/03 07:45:00;;;;;;;9.18;3.75;;;6.40;99.90;;;;;;4937237;29;20186;-86
2021/12/03 07:47:26;;;;;;;8.55;3.80;;;6.30;99.90;;;;;;4954834;28;20254;-78
2021/12/03 07:49:53;;;;;;;8.50;3.40;;;6.30;99.90;;;;;;4952097;29;20206;-78
2021/12/03 07:52:20;;;;;;;5.30;3.40;;;6.30;99.90;;;;;;4968502;28;20180;-77
2021/12/03 07:54:47;;;;;;;6.80;4.05;;;6.30;99.90;;;;;;4951878;29;20539;-78
2021/12/03 07:57:13;;;;;;;7.28;3.33;;;6.30;99.90;;;;;;4953487;28;20304;-77
2021/12/03 07:59:39;;;;;;;4.80;3.17;;;6.30;99.90;;;;;;4953198;28;20173;-78
2021/12/03 08:02:05;;;;;;;7.17;3.40;;;6.30;99.90;;;;;;4953316;28;20308;-77
2021/12/03 08:04:31;;;;;;;7.03;3.30;;;6.30;99.90;;;;;;4951970;29;20184;-77
2021/12/03 08:06:57;;;;;;;5.05;3.25;;;6.30;99.90;;;;;;4953095;28;20192;-77
2021/12/03 08:09:23;;;;;;;5.10;2.90;;;6.40;99.90;;;;;;4952735;28;20216;-77
2021/12/03 08:11:50;;;;;;;16.45;2.88;;;6.40;99.90;;;;;;4968168;28;20176;-77
2021/12/03 08:14:15;;;;;;;8.75;3.67;;;6.40;99.90;;;;;;4953068;28;20181;-77
2021/12/03 08:16:42;;;;;;;4.23;2.27;;;6.40;99.90;;;;;;4952797;28;20227;-79
2021/12/03 08:19:08;;;;;;;4.55;2.35;;;6.40;99.90;;;;;;4951937;29;20180;-79
2021/12/03 08:21:33;;;;;;;4.00;2.37;;;6.40;99.90;;;;;;4953465;28;20176;-79
2021/12/03 08:24:00;;;;;;;5.40;2.20;;;6.40;99.90;;;;;;4952596;29;20184;-78
2021/12/03 08:26:28;;;;;;;6.90;2.40;;;6.50;99.90;;;;;;4955916;28;20533;-79
2021/12/03 08:28:54;;;;;;;6.93;2.20;;;6.40;99.90;;;;;;4952933;28;20196;-77
2021/12/03 08:31:20;;;;;;;4.73;2.40;;;6.50;99.90;;;;;;4968192;28;20185;-77
2021/12/03 08:33:47;;;;;;;6.15;2.03;;;6.50;99.90;;;;;;4951570;29;20568;-77
2021/12/03 08:36:14;;;;;;;4.18;2.70;;;6.60;99.90;;;;;;4956151;28;20196;-78
2021/12/03 08:38:40;;;;;;;5.43;2.00;;;6.60;99.90;;;;;;4968764;28;20204;-77
2021/12/03 08:41:07;;;;;;;4.43;2.25;;;6.60;99.90;;;;;;4952133;29;20165;-77
2021/12/03 08:43:33;;;;;;;4.57;2.03;;;6.70;99.90;;;;;;4952372;28;20165;-77
2021/12/03 08:46:07;;;;;;;4.90;1.93;;;6.70;99.90;;;;;;4958631;28;20172;-77
2021/12/03 08:48:37;;;;;;;4.75;2.10;;;6.70;99.90;;;;;;4965661;28;20306;-77
2021/12/03 08:51:11;;;;;;;7.30;2.70;;;6.70;99.90;;;;;;4951954;29;20177;-77
2021/12/03 08:56:21;;;;;;;4.18;1.70;;;6.80;99.90;;;;;;4969948;28;20184;-77
2021/12/03 08:58:47;;;;;;;3.50;1.67;;;6.90;99.90;;;;;;4955407;28;20208;-77
2021/12/03 09:01:14;;;;;;;5.27;2.50;;;6.90;99.90;;;;;;4955470;28;20223;-77
2021/12/03 09:03:40;;;;;;;4.45;1.80;;;7.00;99.90;;;;;;4963001;28;20187;-77
2021/12/03 09:06:06;;;;;;;6.15;2.53;;;7.10;99.90;;;;;;4964074;28;20175;-77
2021/12/03 09:08:32;;;;;;;6.22;2.20;;;7.10;99.90;;;;;;4979523;28;21043;-77
2021/12/03 09:10:58;;;;;;;3.07;1.73;;;7.20;99.90;;;;;;4986070;28;20184;-77
2021/12/03 09:13:24;;;;;;;3.63;1.60;;;7.30;99.90;;;;;;4962695;28;20183;-76
2021/12/03 09:16:22;;;;;;;3.35;1.50;;;7.40;99.90;;;;;;4955077;28;20279;-77
2021/12/03 09:18:44;;;;;;;5.03;1.90;;;7.40;99.90;;;;;;4952313;28;20601;-76
2021/12/03 09:21:19;;;;;;;3.80;1.95;;;7.40;99.90;;;;;;4958106;28;20919;-77
2021/12/03 09:26:15;;;;;;;6.68;1.67;;;7.70;99.90;;;;;;4955369;28;20177;-77
2021/12/03 09:28:48;;;;;;;4.68;1.60;;;7.80;99.90;;;;;;4955205;28;20624;-76
2021/12/03 09:31:16;;;;;;;6.55;1.38;;;7.90;99.90;;;;;;4953170;29;20187;-77
2021/12/03 09:33:45;;;;;;;6.32;1.50;;;7.90;99.90;;;;;;4955376;29;20590;-77
2021/12/03 09:36:10;;;;;;;4.63;1.33;;;8.10;99.90;;;;;;4954874;28;20279;-77
2021/12/03 09:38:38;;;;;;;4.45;1.92;;;8.10;99.90;;;;;;4954912;28;20303;-77
2021/12/03 09:41:07;;;;;;;4.43;1.65;;;8.20;99.90;;;;;;4955194;29;20508;-77
2021/12/03 09:43:35;;;;;;;4.70;1.38;;;8.30;99.90;;;;;;4967360;28;20200;-77
2021/12/03 09:46:24;;;;;;;11.30;2.45;;;8.30;99.90;;;;;;4955220;29;20203;-77
2021/12/03 09:51:46;;;;;;;6.95;1.60;;;8.40;99.90;;;;;;4955741;29;20255;-77
2021/12/03 09:56:42;;;;;;;6.68;1.90;;;8.40;99.90;;;;;;4955363;28;20180;-76
2021/12/03 10:04:33;;;;;;;4.40;1.67;;;8.40;99.90;;;;;;4955144;28;20873;-77
2021/12/03 10:15:10;;;;;;;4.13;1.85;;;8.50;99.90;;;;;;4949511;29;20541;-77
2021/12/03 10:26:25;;;;;;;4.55;1.92;;;8.50;99.90;;;;;;4958167;28;20694;-77
2021/12/03 10:39:05;;;;;;;5.07;2.25;;;8.30;99.90;;;;;;4952531;28;20649;-76
2021/12/03 10:41:45;;;;;;;5.88;2.83;;;8.40;99.90;;;;;;4953759;29;20224;-78
2021/12/03 10:49:47;;;;;;;5.07;2.08;;;8.30;99.90;;;;;;4950750;29;20191;-78
2021/12/03 10:52:31;;;;;;;7.25;2.90;;;8.20;99.90;;;;;;4962095;28;20258;-78
2021/12/03 12:05:11;;;;;;;4.50;1.80;;;8.50;99.90;;;;;;4972384;28;20289;-79
2021/12/03 12:23:22;;;;;;;4.68;2.10;;;8.60;99.90;;;;;;4972318;28;20159;-79
2021/12/03 12:31:05;;;;;;;3.50;2.50;;;8.80;99.90;;;;;;4956809;28;20676;-79
2021/12/03 12:39:31;;;;;;;5.88;2.63;;;8.80;99.90;;;;;;4975515;28;20611;-79
2021/12/03 13:13:44;;;;;;;3.40;1.67;;;8.80;99.90;;;;;;4942447;28;20597;-79
2021/12/03 14:32:22;;;;;;;3.28;1.50;;;8.40;99.90;;;;;;4982205;28;20190;-80
2021/12/03 14:41:11;;;;;;;5.25;1.48;;;8.30;99.90;;;;;;4981552;28;20314;-80
2021/12/03 14:44:02;;;;;;;2.95;1.38;;;8.20;99.90;;;;;;4986799;28;20195;-80
2021/12/03 14:46:57;;;;;;;2.90;1.13;;;8.20;99.90;;;;;;4988139;28;20224;-80
2021/12/03 14:52:59;;;;;;;3.22;1.30;;;8.20;99.90;;;;;;4973515;28;20190;-80
2021/12/03 14:55:07;;;;;;;1.70;1.02;;;8.20;99.90;;;;;;4949684;28;20652;-80
2021/12/03 15:00:33;;;;;;;2.67;1.10;;;8.10;99.90;;;;;;4974224;28;20175;-79
2021/12/03 15:08:35;;;;;;;3.35;1.55;;;8.10;99.90;;;;;;4973978;28;20564;-80
2021/12/03 15:17:16;;;;;;;2.65;1.00;;;8.10;99.90;;;;;;4942262;28;20556;-80
2021/12/03 15:32:48;;;;;;;2.40;1.20;;;7.90;99.90;;;;;;4977257;28;20182;-80
2021/12/03 15:36:17;;;;;;;4.82;1.42;;;7.90;99.90;;;;;;4973513;28;20167;-80
2021/12/03 15:57:17;;;;;;;2.20;1.60;;;7.30;99.90;;;;;;4978103;28;20214;-80
2021/12/03 16:10:52;;;;;;;3.95;1.25;;;7.00;99.90;;;;;;4973929;28;20182;-79
2021/12/03 16:19:15;;;;;;;2.55;0.90;;;6.70;99.90;;;;;;4977260;28;20200;-79
2021/12/03 16:21:52;;;;;;;3.20;1.30;;;6.70;99.90;;;;;;4974648;28;20175;-79
2021/12/03 16:43:52;;;;;;;3.67;1.20;;;6.90;99.90;;;;;;4980280;28;20191;-80
2021/12/03 16:49:46;;;;;;;3.63;1.10;;;7.00;99.90;;;;;;4979142;28;20211;-79
2021/12/03 16:52:03;;;;;;;3.47;1.10;;;7.00;99.90;;;;;;4944227;28;20226;-80
2021/12/03 16:54:49;;;;;;;3.65;1.80;;;7.00;99.90;;;;;;4946321;28;20203;-79
2021/12/03 16:57:16;;;;;;;1.90;1.00;;;7.00;99.90;;;;;;4938851;28;20651;-80
2021/12/03 16:59:45;;;;;;;2.25;1.05;;;7.10;99.90;;;;;;4972164;28;20659;-79
2021/12/03 17:02:18;;;;;;;3.25;1.40;;;7.10;99.90;;;;;;4965179;28;20180;-79
2021/12/03 17:45:10;;;;;;;1.80;1.20;;;7.40;99.90;;;;;;4956111;29;20332;-78
2021/12/03 17:58:32;;;;;;;1.30;0.80;;;7.40;99.90;;;;;;4954984;28;20636;-77
2021/12/03 18:03:45;;;;;;;2.00;1.25;;;7.40;99.90;;;;;;4955471;29;20169;-77
2021/12/03 18:12:07;;;;;;;1.60;1.10;;;7.40;99.90;;;;;;4954857;29;20177;-76
2021/12/03 18:55:16;;;;;;;1.60;1.10;;;7.20;99.90;;;;;;4954373;29;20532;-81
2021/12/03 18:57:44;;;;;;;2.67;1.75;;;7.20;99.90;;;;;;4936414;29;20204;-80
2021/12/03 19:00:14;;;;;;;3.30;1.90;;;7.20;99.90;;;;;;4954332;29;20175;-80
2021/12/03 19:02:44;;;;;;;2.63;1.65;;;7.10;99.90;;;;;;4953259;29;20226;-80
2021/12/03 19:05:34;;;;;;;3.80;1.52;;;7.10;99.90;;;;;;4936162;29;20557;-80
2021/12/03 19:10:29;;;;;;;2.72;1.45;;;7.20;99.90;;;;;;4952550;29;20263;-80
2021/12/03 19:13:02;;;;;;;2.05;1.00;;;7.20;99.90;;;;;;4953157;29;20876;-80
2021/12/03 19:15:29;;;;;;;1.98;1.20;;;7.20;99.90;;;;;;4953684;29;20568;-79
2021/12/03 19:17:59;;;;;;;2.15;1.65;;;7.20;99.90;;;;;;4951911;28;20219;-80
2021/12/03 19:20:28;;;;;;;1.60;0.82;;;7.20;99.90;;;;;;4936899;29;20173;-80
2021/12/03 19:22:53;;;;;;;1.85;0.95;;;7.30;99.90;;;;;;4935722;29;20176;-81
2021/12/03 19:25:19;;;;;;;1.50;0.90;;;7.30;99.90;;;;;;4954013;29;20310;-80
2021/12/03 19:27:45;;;;;;;1.53;1.10;;;7.30;99.90;;;;;;4953168;28;20251;-81
2021/12/03 19:30:11;;;;;;;1.40;0.90;;;7.40;99.90;;;;;;4953686;29;20168;-81
2021/12/03 19:32:37;;;;;;;2.75;1.33;;;7.30;99.90;;;;;;4952941;29;20175;-80
2021/12/03 19:35:04;;;;;;;2.03;1.15;;;7.30;99.90;;;;;;4953734;29;20187;-80
2021/12/03 19:37:30;;;;;;;1.30;0.68;;;7.40;99.90;;;;;;4951240;28;20230;-80
2021/12/03 19:39:58;;;;;;;2.03;0.60;;;7.40;99.90;;;;;;4953570;29;20176;-80
2021/12/03 19:42:31;;;;;;;1.10;0.70;;;7.40;99.90;;;;;;4920619;29;20623;-80
2021/12/03 19:45:00;;;;;;;1.85;0.70;;;7.50;99.90;;;;;;4936419;29;20264;-80
2021/12/03 19:47:33;;;;;;;1.60;0.90;;;7.50;99.90;;;;;;4956161;28;20218;-81
2021/12/03 19:52:53;;;;;;;1.42;0.70;;;7.50;99.90;;;;;;4952680;29;20608;-80
2021/12/03 19:55:18;;;;;;;1.42;0.80;;;7.50;99.90;;;;;;4953563;29;20242;-80
2021/12/03 19:57:44;;;;;;;1.87;0.80;;;7.50;99.90;;;;;;4952764;28;20200;-81
2021/12/03 20:00:11;;;;;;;1.30;0.80;;;7.50;99.90;;;;;;4953113;29;20660;-81
2021/12/03 20:02:43;;;;;;;2.47;0.70;;;7.50;99.90;;;;;;4936867;29;20196;-81
2021/12/03 20:05:09;;;;;;;1.40;0.70;;;7.50;99.90;;;;;;4953217;29;20688;-80
2021/12/03 20:07:34;;;;;;;1.40;0.80;;;7.50;99.90;;;;;;4940055;29;20295;-81
2021/12/03 20:10:09;;;;;;;1.27;0.70;;;7.50;99.90;;;;;;4952816;29;20544;-80
2021/12/03 20:12:35;;;;;;;1.48;0.80;;;7.60;99.90;;;;;;4953029;29;20250;-80
2021/12/03 20:15:04;;;;;;;1.33;0.70;;;7.60;99.90;;;;;;4953355;29;20641;-81
2021/12/03 20:19:58;;;;;;;1.30;0.63;;;7.70;99.90;;;;;;4952997;29;20180;-80
2021/12/03 20:22:36;;;;;;;1.10;0.60;;;7.70;99.90;;;;;;4952951;29;20719;-81
2021/12/03 20:27:52;;;;;;;1.30;0.60;;;7.80;99.90;;;;;;4952699;28;20194;-80
2021/12/03 20:30:23;;;;;;;1.10;0.60;;;7.80;99.90;;;;;;4967675;28;20222;-79
2021/12/03 20:33:14;;;;;;;1.15;0.60;;;7.80;99.90;;;;;;4953066;29;20183;-81
2021/12/03 20:38:12;;;;;;;1.00;0.50;;;7.80;99.90;;;;;;4952316;28;20239;-81